Time;durP1;ratioP1;P1;durP2;ratioP2;P2;SDS_P1;SDS_P2;PMS_P1;PMS_P2;Temp;Humidity;BMP_temperature;BMP_pressure;BME280_temperature;BME280_humidity;BME280_pressure;Samples;Min_cycle;Max_cycle;Signal;HPM_P1;HPM_P2
2021/06/10 00:03:22;;;;;;;5.75;1.95;;;16.20;99.90;;;;;;21039739;28;20079;-47
2021/06/10 00:13:23;;;;;;;3.15;1.80;;;16.10;99.90;;;;;;21034317;28;20044;-47
2021/06/10 00:23:24;;;;;;;4.57;2.40;;;16.10;99.90;;;;;;21039697;28;20487;-47
2021/06/10 00:33:25;;;;;;;5.32;2.35;;;16.00;99.90;;;;;;21041045;28;20040;-47
2021/06/10 00:43:27;;;;;;;5.38;2.75;;;16.00;99.90;;;;;;21035975;28;20044;-47
2021/06/10 00:53:28;;;;;;;4.82;1.80;;;15.70;99.90;;;;;;21037399;28;20109;-47
2021/06/10 01:03:30;;;;;;;4.10;1.88;;;15.70;99.90;;;;;;21038012;28;20431;-47
2021/06/10 01:13:43;;;;;;;4.25;2.03;;;15.70;99.90;;;;;;21032659;28;20189;-47
2021/06/10 01:24:07;;;;;;;4.22;2.47;;;15.50;99.90;;;;;;21032365;28;20044;-47
2021/06/10 01:34:09;;;;;;;2.97;1.73;;;15.30;99.90;;;;;;21037542;28;20040;-47
2021/06/10 01:44:13;;;;;;;4.72;2.17;;;15.30;99.90;;;;;;21040773;28;20044;-47
2021/06/10 01:54:16;;;;;;;3.75;1.98;;;15.10;99.90;;;;;;21041310;28;20094;-47
2021/06/10 02:04:20;;;;;;;4.57;1.98;;;15.10;99.90;;;;;;21037367;28;20056;-47
2021/06/10 02:14:23;;;;;;;4.97;2.10;;;15.00;99.90;;;;;;21039538;28;20521;-47
2021/06/10 02:24:24;;;;;;;3.97;2.20;;;14.90;99.90;;;;;;21041334;28;20483;-47
2021/06/10 02:34:25;;;;;;;4.65;2.42;;;14.80;99.90;;;;;;21038633;28;20051;-47
2021/06/10 02:44:28;;;;;;;5.57;2.58;;;14.70;99.90;;;;;;21033981;28;20036;-47
2021/06/10 02:54:29;;;;;;;6.22;3.45;;;14.70;99.90;;;;;;21034253;28;20106;-47
2021/06/10 03:04:32;;;;;;;5.63;2.33;;;14.80;99.90;;;;;;21036843;28;20059;-46
2021/06/10 03:14:33;;;;;;;5.82;2.42;;;15.00;99.90;;;;;;21034654;28;20044;-47
2021/06/10 03:24:35;;;;;;;6.55;2.63;;;15.00;99.90;;;;;;21031082;28;20048;-47
2021/06/10 03:34:37;;;;;;;10.40;3.95;;;15.10;99.90;;;;;;21029876;28;20055;-47
2021/06/10 03:44:39;;;;;;;5.97;3.15;;;15.10;99.90;;;;;;21032553;28;20573;-47
2021/06/10 03:54:40;;;;;;;5.55;3.05;;;15.20;99.90;;;;;;21032687;28;20040;-47
2021/06/10 04:04:42;;;;;;;8.05;3.75;;;15.40;99.90;;;;;;21033497;28;20138;-47
2021/06/10 04:14:43;;;;;;;7.85;3.72;;;15.40;99.90;;;;;;21030435;28;20040;-47
2021/06/10 04:24:44;;;;;;;9.93;4.13;;;15.30;99.90;;;;;;21031630;28;20464;-47
2021/06/10 04:34:45;;;;;;;8.70;4.93;;;15.40;99.90;;;;;;21030115;28;20052;-47
2021/06/10 04:44:46;;;;;;;8.30;3.85;;;15.60;99.90;;;;;;21032433;28;20055;-47
2021/06/10 04:54:47;;;;;;;5.88;2.58;;;15.90;99.90;;;;;;21041993;28;20050;-47
2021/06/10 05:04:48;;;;;;;5.82;2.88;;;16.30;99.90;;;;;;21046210;28;20562;-47
2021/06/10 05:14:50;;;;;;;5.85;2.28;;;16.60;99.90;;;;;;21042637;28;20384;-47
2021/06/10 05:24:52;;;;;;;4.85;2.72;;;16.70;99.90;;;;;;21042772;28;20127;-47
2021/06/10 05:34:53;;;;;;;4.10;1.63;;;16.80;99.90;;;;;;21042243;28;20114;-47
2021/06/10 05:44:54;;;;;;;4.22;1.70;;;17.00;99.90;;;;;;21034641;28;20432;-47
2021/06/10 05:54:55;;;;;;;4.22;1.67;;;17.50;99.90;;;;;;21035897;28;20052;-47
2021/06/10 06:04:56;;;;;;;4.45;2.08;;;17.90;99.90;;;;;;21033871;28;20301;-47
2021/06/10 06:14:57;;;;;;;5.28;2.03;;;18.00;99.90;;;;;;21030884;28;20129;-48
2021/06/10 06:24:59;;;;;;;4.95;2.30;;;18.10;99.90;;;;;;21038459;28;20036;-48
2021/06/10 06:35:00;;;;;;;4.43;2.33;;;18.30;99.90;;;;;;21032847;28;20503;-47
2021/06/10 06:45:02;;;;;;;7.45;2.35;;;18.50;99.90;;;;;;21039626;28;20081;-48
2021/06/10 06:55:04;;;;;;;7.22;1.77;;;18.70;99.90;;;;;;21034375;28;20517;-49
2021/06/10 07:05:06;;;;;;;5.78;1.80;;;19.00;99.90;;;;;;21035477;28;20126;-49
2021/06/10 07:15:08;;;;;;;4.70;1.77;;;19.30;99.90;;;;;;21039197;28;20043;-49
2021/06/10 07:25:10;;;;;;;9.55;3.20;;;19.30;99.90;;;;;;21037889;28;20071;-49
2021/06/10 07:35:12;;;;;;;3.20;1.48;;;19.70;99.90;;;;;;21038307;28;20139;-49
2021/06/10 07:45:14;;;;;;;4.28;1.95;;;19.80;99.90;;;;;;21038381;28;20356;-49
2021/06/10 07:55:15;;;;;;;3.45;1.10;;;20.30;99.90;;;;;;21035540;28;20041;-49
2021/06/10 08:05:16;;;;;;;2.10;0.80;;;20.60;99.90;;;;;;21015068;28;20305;-49
2021/06/10 08:15:17;;;;;;;2.17;0.80;;;20.90;99.90;;;;;;21036628;28;20044;-49
2021/06/10 08:25:19;;;;;;;3.55;1.85;;;21.30;99.90;;;;;;21051826;28;20052;-49
2021/06/10 08:35:20;;;;;;;4.25;1.35;;;21.60;99.90;;;;;;21050708;28;20040;-49
2021/06/10 08:45:25;;;;;;;2.67;1.33;;;21.80;99.90;;;;;;21046708;28;20135;-49
2021/06/10 08:55:29;;;;;;;2.50;0.95;;;22.10;99.90;;;;;;21048746;28;20538;-49
2021/06/10 09:05:30;;;;;;;7.15;1.45;;;22.40;99.90;;;;;;21049100;28;20043;-49
2021/06/10 09:15:38;;;;;;;2.42;0.95;;;22.70;99.90;;;;;;21048702;28;20077;-49
2021/06/10 09:25:40;;;;;;;5.70;1.88;;;22.80;99.90;;;;;;21046314;28;20040;-49
2021/06/10 09:35:43;;;;;;;6.90;1.33;;;23.40;99.90;;;;;;21044610;28;20055;-49
2021/06/10 09:45:53;;;;;;;4.20;1.35;;;23.40;99.90;;;;;;21043352;28;20044;-49
2021/06/10 09:56:08;;;;;;;3.28;1.38;;;23.70;99.90;;;;;;21034307;28;20047;-49
2021/06/10 10:06:19;;;;;;;2.05;0.80;;;24.00;99.90;;;;;;21038159;28;20047;-48
2021/06/10 10:16:23;;;;;;;4.97;1.25;;;24.10;95.50;;;;;;21040356;28;20105;-48
2021/06/10 10:26:24;;;;;;;1.77;0.80;;;24.50;94.50;;;;;;21039833;28;20044;-48
2021/06/10 10:36:33;;;;;;;1.52;0.70;;;24.60;92.00;;;;;;21038083;28;20443;-48
2021/06/10 10:46:34;;;;;;;1.13;0.40;;;25.00;91.60;;;;;;21015838;28;20078;-49
2021/06/10 10:56:39;;;;;;;2.45;0.70;;;25.60;87.60;;;;;;21037374;28;20040;-49
2021/06/10 11:06:41;;;;;;;1.63;0.65;;;25.70;87.90;;;;;;21038239;28;20048;-48
2021/06/10 11:17:13;;;;;;;2.92;0.77;;;25.90;85.70;;;;;;21039030;28;20052;-49
2021/06/10 11:27:30;;;;;;;2.28;0.95;;;26.40;87.30;;;;;;21039875;28;20040;-49
2021/06/10 11:37:33;;;;;;;2.00;0.98;;;26.80;84.30;;;;;;21039436;28;20056;-49
2021/06/10 11:47:36;;;;;;;1.85;0.60;;;26.90;89.70;;;;;;21037541;28;20036;-49
2021/06/10 11:57:38;;;;;;;4.40;0.93;;;27.60;82.00;;;;;;21048446;28;20046;-49
2021/06/10 12:07:39;;;;;;;2.50;1.33;;;27.70;80.00;;;;;;21054196;28;20046;-49
2021/06/10 12:17:59;;;;;;;1.42;0.65;;;28.00;78.00;;;;;;21034827;28;20048;-49
2021/06/10 12:28:02;;;;;;;4.32;1.38;;;28.20;75.50;;;;;;21050941;28;20032;-49
2021/06/10 12:38:03;;;;;;;1.90;0.90;;;28.30;74.60;;;;;;21051581;28;20124;-49
2021/06/10 12:48:28;;;;;;;7.35;1.13;;;27.90;76.50;;;;;;21051385;28;20115;-49
2021/06/10 12:58:30;;;;;;;2.47;0.80;;;28.30;75.70;;;;;;21046456;28;21412;-49
2021/06/10 13:08:31;;;;;;;6.38;1.70;;;28.20;76.40;;;;;;21045326;28;20032;-49
2021/06/10 13:18:33;;;;;;;11.60;2.08;;;28.30;79.30;;;;;;21042096;28;20056;-48
2021/06/10 13:28:36;;;;;;;2.72;1.58;;;29.00;81.90;;;;;;21039661;28;20044;-49
2021/06/10 13:38:41;;;;;;;3.70;1.40;;;28.70;79.20;;;;;;21042826;28;20028;-48
2021/06/10 13:48:44;;;;;;;2.33;1.02;;;28.60;80.30;;;;;;21042953;28;20050;-49
2021/06/10 13:58:45;;;;;;;3.72;1.60;;;28.10;81.90;;;;;;21028197;28;20050;-49
2021/06/10 14:08:46;;;;;;;2.92;1.05;;;28.20;82.60;;;;;;21037051;28;20044;-49
2021/06/10 14:18:49;;;;;;;2.88;1.25;;;27.40;86.10;;;;;;21038259;28;20054;-49
2021/06/10 14:28:52;;;;;;;1.95;1.10;;;27.30;89.30;;;;;;21038397;28;20044;-49
2021/06/10 14:38:55;;;;;;;4.07;1.67;;;27.50;88.20;;;;;;21035925;28;20129;-48
2021/06/10 14:48:57;;;;;;;2.45;1.20;;;27.80;89.00;;;;;;21036295;28;20040;-49
2021/06/10 14:58:58;;;;;;;8.35;1.52;;;27.10;90.10;;;;;;21032149;28;20048;-49
2021/06/10 15:08:59;;;;;;;2.13;1.08;;;27.30;90.50;;;;;;21035231;28;20036;-49
2021/06/10 15:19:00;;;;;;;1.65;0.75;;;27.00;91.50;;;;;;21035784;28;20036;-49
2021/06/10 15:29:03;;;;;;;1.52;0.57;;;26.60;91.60;;;;;;21034212;28;20039;-49
2021/06/10 15:39:05;;;;;;;1.48;0.55;;;26.60;92.20;;;;;;21033521;28;20048;-49
2021/06/10 15:49:07;;;;;;;1.20;0.40;;;26.40;92.30;;;;;;21025403;28;20127;-49
2021/06/10 15:59:08;;;;;;;0.80;0.32;;;26.40;93.00;;;;;;21020315;28;20040;-49
2021/06/10 16:09:09;;;;;;;1.10;0.40;;;26.40;94.10;;;;;;21025290;28;20047;-49
2021/06/10 16:19:11;;;;;;;1.05;0.30;;;26.20;94.40;;;;;;21026218;28;20040;-49
2021/06/10 16:29:13;;;;;;;1.30;0.70;;;26.10;95.90;;;;;;21004795;28;20125;-48
2021/06/10 16:39:14;;;;;;;2.42;0.20;;;25.90;95.70;;;;;;21035277;28;20110;-48
2021/06/10 16:49:16;;;;;;;0.63;0.30;;;25.60;96.30;;;;;;21045098;28;20048;-49
2021/06/10 16:59:18;;;;;;;0.80;0.30;;;25.20;96.70;;;;;;21048478;28;20055;-49
2021/06/10 17:09:22;;;;;;;1.10;0.60;;;24.90;97.90;;;;;;21048156;28;20405;-49
2021/06/10 17:19:24;;;;;;;1.50;0.70;;;24.60;98.40;;;;;;21044892;28;20054;-49
2021/06/10 17:29:26;;;;;;;3.05;1.38;;;24.40;99.10;;;;;;21042020;28;20113;-49
2021/06/10 17:39:27;;;;;;;2.33;1.02;;;23.90;99.90;;;;;;21041219;28;20300;-49
2021/06/10 17:49:29;;;;;;;2.15;1.02;;;23.70;99.90;;;;;;21045203;28;20048;-49
2021/06/10 17:59:30;;;;;;;3.45;1.77;;;23.50;99.90;;;;;;21041327;28;20127;-49
2021/06/10 18:09:31;;;;;;;2.78;1.42;;;23.20;99.90;;;;;;21042412;28;20043;-49
2021/06/10 18:19:35;;;;;;;3.05;1.40;;;23.10;99.90;;;;;;21042639;28;20190;-49
2021/06/10 18:29:36;;;;;;;2.42;1.13;;;22.80;99.90;;;;;;21042508;28;20183;-49
2021/06/10 18:39:38;;;;;;;3.80;1.50;;;22.60;99.90;;;;;;21041620;28;20039;-49
2021/06/10 18:49:39;;;;;;;3.63;2.03;;;22.50;99.90;;;;;;21040167;28;20109;-49
2021/06/10 18:59:41;;;;;;;4.07;2.03;;;22.20;99.90;;;;;;21038553;28;20040;-48
2021/06/10 19:09:44;;;;;;;2.85;1.60;;;22.20;99.90;;;;;;21034898;28;20047;-49
2021/06/10 19:19:47;;;;;;;2.85;1.60;;;21.80;99.90;;;;;;21033468;28;20055;-49
2021/06/10 19:29:50;;;;;;;4.10;1.95;;;21.60;99.90;;;;;;21036857;28;20036;-49
2021/06/10 19:39:53;;;;;;;3.42;2.00;;;21.40;99.90;;;;;;21035538;28;20116;-48
2021/06/10 19:49:56;;;;;;;4.80;2.10;;;21.20;99.90;;;;;;21032773;28;20342;-49
2021/06/10 19:59:57;;;;;;;3.90;1.98;;;20.80;99.90;;;;;;21023265;28;20052;-48
2021/06/10 20:09:58;;;;;;;4.90;2.53;;;20.50;99.90;;;;;;21033235;28;20139;-47
2021/06/10 20:19:59;;;;;;;4.85;2.33;;;20.20;99.90;;;;;;21039353;28;20105;-48
2021/06/10 20:40:21;;;;;;;7.10;3.22;;;20.10;99.90;;;;;;21050124;28;20129;-48
2021/06/10 20:50:22;;;;;;;6.28;2.58;;;19.90;99.90;;;;;;21042917;28;20055;-48
2021/06/10 21:00:24;;;;;;;13.05;3.63;;;19.80;99.90;;;;;;21029075;28;20139;-48
2021/06/10 21:10:25;;;;;;;6.35;2.63;;;19.60;99.90;;;;;;21049189;28;20507;-48
2021/06/10 21:20:26;;;;;;;7.30;2.88;;;19.50;99.90;;;;;;21050100;28;20129;-48
2021/06/10 21:30:28;;;;;;;7.07;3.55;;;19.30;99.90;;;;;;21047122;28;20128;-48
2021/06/10 21:40:29;;;;;;;3.92;1.80;;;19.30;99.90;;;;;;21049198;28;20040;-48
2021/06/10 21:50:31;;;;;;;5.88;2.50;;;19.00;99.90;;;;;;21046253;28;20044;-48
2021/06/10 22:00:32;;;;;;;6.78;3.35;;;19.00;99.90;;;;;;21044433;28;20040;-48
2021/06/10 22:10:37;;;;;;;6.47;3.03;;;18.90;99.90;;;;;;21043990;28;20344;-48
2021/06/10 22:20:39;;;;;;;7.80;3.65;;;18.80;99.90;;;;;;21042835;28;20131;-48
2021/06/10 22:30:44;;;;;;;5.90;3.80;;;18.70;99.90;;;;;;21040949;28;20094;-48
2021/06/10 22:40:54;;;;;;;9.52;3.75;;;18.60;99.90;;;;;;21039774;28;20052;-48
2021/06/10 22:50:57;;;;;;;9.43;3.35;;;18.60;99.90;;;;;;21037986;28;20040;-48
2021/06/10 23:00:58;;;;;;;8.40;3.95;;;18.50;99.90;;;;;;21036350;28;20051;-47
2021/06/10 23:11:00;;;;;;;9.75;3.88;;;18.30;99.90;;;;;;21037208;28;20039;-48
2021/06/10 23:21:01;;;;;;;8.20;3.75;;;18.10;99.90;;;;;;21038566;28;20133;-48
2021/06/10 23:31:02;;;;;;;7.85;3.92;;;18.20;99.90;;;;;;21038400;28;20171;-48
2021/06/10 23:41:04;;;;;;;10.65;4.57;;;18.10;99.90;;;;;;21038752;28;20043;-48
2021/06/10 23:51:05;;;;;;;10.75;4.38;;;17.90;99.90;;;;;;21043151;28;20036;-48
